Park City, UT

1:17 PM MDT on August 27, 2014 (GMT -0600)
Heber | Change Station
CLOSE
Current Station
Airport
Location: Heber,
Elevation: 5636 ft
Nearby Weather Stations

Elev 5636 ft 40.48 °N, 111.43 °W | Updated 22 minutes ago

Rain
Rain
61 °F
Feels Like 61 °F
N
8
Wind Variable Wind from West

Today
High -- | Low -- °F
--% Chance of Precip.
Yesterday
High -- | Low -- °F
Precip. -- in
6:48 AM 8:06 PM
Waxing Crescent, 4% visible
Pressure 30.27 in
Visibility 7.0 miles
Clouds Mostly Cloudy 5000 ft
Mostly Cloudy 7500 ft
Overcast 8500 ft
Dew Point 52 °F
Humidity 72%
Rainfall 0.00 in
Snow Depth 0 in , 0 in , 0 in
UV 3 out of 12
Pollen 7.40 out of 12
Air Quality Not available.
Flu Activity Not available.
METAR K36U 271855Z AUTO 26007KT 7SM RA BKN050 BKN075 OVC085 16/11 A3027 RMK AO2 LTG DSNT E

More Conditions Fewer Conditions

Pressure 30.27 in
Visibility 7.0 miles
Clouds Mostly Cloudy 5000 ft
Mostly Cloudy 7500 ft
Overcast 8500 ft
Dew Point 52 °F
Humidity 72%
Rainfall 0.00 in
Snow Depth 0 in , 0 in , 0 in
UV 3 out of 12
Pollen 7.40 out of 12
Air Quality Not available.
Flu Activity Not available.
METAR K36U 271855Z AUTO 26007KT 7SM RA BKN050 BKN075 OVC085 16/11 A3027 RMK AO2 LTG DSNT E

More Conditions Fewer Conditions

Nowcast | as of 1:02 PM MDT on August 27, 2014

Scattered showers and isolated thunderstorms will continue to develop over portions of northern and eastern Utah and southwest Wyoming through this afternoon. The strongest storms at 1 PM were located over northern Utah County near Fairfield and over the mountains. Brief heavy rain...gusty winds...cloud to ground lightning and small hail are likely with some of these storms.

×

10-Day Weather Forecast

Almanac

Astronomy

Aug. 27, 2014 Rise Set
Actual Time 6:48 AM MDT 8:06 PM MDT
Civil Twilight 6:19 AM MDT 8:34 PM MDT
Nautical Twilight 5:45 AM MDT 9:08 PM MDT
Astronomical Twilight 5:09 AM MDT 9:44 PM MDT
Moon 8:48 AM MDT 8:59 PM MDT
Length of Visible Light 14h 14m
Length of Day
13h 17m
Tomorrow will be 2m 33s shorter.
Waxing Crescent, 4% of the Moon is Illuminated
Today
Waxing Crescent
Sep 2
First Quarter
Sep 8
Full
Sep 15
Last Quarter
Sep 24
New

Today's Extremes

State Highs State Lows

Community

WunderPhotos

Upload Photos

1,747,759 photos uploaded!

Nearby

Snow Depth

Station Depth Elevation
Thaynes Canyon 0 in 9200 ft
Mill-d North 0 in 8960 ft
Lookout Peak 0 in 8200 ft
Hardscrabble 0 in 7250 ft
Louis Meadow 1 in 6700 ft

Earthquake Activity

City Distance Mag. Time & Date
No recent earthquake activity has been reported nearby.
Minimum magnitude displayed is 2.5.

Coastal Water Temperatures

Place Temperature
No Stations Reporting

Nearby Weather Stations